sensor_id;sensor_type;location;lat;lon;timestamp;temperature;humidity
52209;DHT22;38507;53.132;6.394;2022-07-03T00:01:12;17.50;99.90
52209;DHT22;38507;53.132;6.394;2022-07-03T00:03:38;17.20;99.90
52209;DHT22;38507;53.132;6.394;2022-07-03T00:06:04;17.40;99.90
52209;DHT22;38507;53.132;6.394;2022-07-03T00:08:30;17.40;99.90
52209;DHT22;38507;53.132;6.394;2022-07-03T00:10:55;17.40;99.90
52209;DHT22;38507;53.132;6.394;2022-07-03T00:13:21;17.20;99.90
52209;DHT22;38507;53.132;6.394;2022-07-03T00:15:47;17.30;99.90
52209;DHT22;38507;53.132;6.394;2022-07-03T00:18:12;17.20;99.90
52209;DHT22;38507;53.132;6.394;2022-07-03T00:20:42;17.10;99.90
52209;DHT22;38507;53.132;6.394;2022-07-03T00:23:10;17.20;99.90
52209;DHT22;38507;53.132;6.394;2022-07-03T00:25:40;17.10;99.90
52209;DHT22;38507;53.132;6.394;2022-07-03T00:28:06;17.00;99.90
52209;DHT22;38507;53.132;6.394;2022-07-03T00:30:34;17.00;99.90
52209;DHT22;38507;53.132;6.394;2022-07-03T00:33:02;16.90;99.90
52209;DHT22;38507;53.132;6.394;2022-07-03T00:35:31;16.80;99.90
52209;DHT22;38507;53.132;6.394;2022-07-03T00:37:58;16.80;99.90
52209;DHT22;38507;53.132;6.394;2022-07-03T00:40:24;16.70;99.90
52209;DHT22;38507;53.132;6.394;2022-07-03T00:42:50;16.70;99.90
52209;DHT22;38507;53.132;6.394;2022-07-03T00:45:20;16.70;99.90
52209;DHT22;38507;53.132;6.394;2022-07-03T00:47:46;16.70;99.90
52209;DHT22;38507;53.132;6.394;2022-07-03T00:50:14;16.60;99.90
52209;DHT22;38507;53.132;6.394;2022-07-03T00:52:45;16.80;99.90
52209;DHT22;38507;53.132;6.394;2022-07-03T00:55:15;16.50;99.90
52209;DHT22;38507;53.132;6.394;2022-07-03T00:57:47;16.60;99.90
52209;DHT22;38507;53.132;6.394;2022-07-03T01:00:16;16.50;99.90
52209;DHT22;38507;53.132;6.394;2022-07-03T01:03:00;16.40;99.90
52209;DHT22;38507;53.132;6.394;2022-07-03T01:16:17;16.20;99.90
52209;DHT22;38507;53.132;6.394;2022-07-03T01:18:58;16.20;99.90
52209;DHT22;38507;53.132;6.394;2022-07-03T01:26:28;16.10;99.90
52209;DHT22;38507;53.132;6.394;2022-07-03T01:28:58;16.10;99.90
52209;DHT22;38507;53.132;6.394;2022-07-03T01:31:29;16.10;99.90
52209;DHT22;38507;53.132;6.394;2022-07-03T01:33:55;16.10;99.90
52209;DHT22;38507;53.132;6.394;2022-07-03T01:36:24;16.20;99.90
52209;DHT22;38507;53.132;6.394;2022-07-03T01:38:51;16.10;99.90
52209;DHT22;38507;53.132;6.394;2022-07-03T01:41:17;16.00;99.90
52209;DHT22;38507;53.132;6.394;2022-07-03T01:43:55;16.00;99.90
52209;DHT22;38507;53.132;6.394;2022-07-03T01:46:27;16.00;99.90
52209;DHT22;38507;53.132;6.394;2022-07-03T01:48:54;15.90;99.90
52209;DHT22;38507;53.132;6.394;2022-07-03T01:51:21;15.80;99.90
52209;DHT22;38507;53.132;6.394;2022-07-03T01:53:50;15.60;99.90
52209;DHT22;38507;53.132;6.394;2022-07-03T01:56:17;15.50;99.90
52209;DHT22;38507;53.132;6.394;2022-07-03T01:58:44;15.40;99.90
52209;DHT22;38507;53.132;6.394;2022-07-03T02:04:21;15.20;99.90
52209;DHT22;38507;53.132;6.394;2022-07-03T02:07:09;15.20;99.90
52209;DHT22;38507;53.132;6.394;2022-07-03T02:09:46;15.10;99.90
52209;DHT22;38507;53.132;6.394;2022-07-03T02:12:18;15.10;99.90
52209;DHT22;38507;53.132;6.394;2022-07-03T02:14:57;15.00;99.90
52209;DHT22;38507;53.132;6.394;2022-07-03T02:17:29;15.00;99.90
52209;DHT22;38507;53.132;6.394;2022-07-03T02:20:04;15.00;99.90
52209;DHT22;38507;53.132;6.394;2022-07-03T02:22:37;14.90;99.90
52209;DHT22;38507;53.132;6.394;2022-07-03T02:25:06;14.90;99.90
52209;DHT22;38507;53.132;6.394;2022-07-03T02:27:44;14.90;99.90
52209;DHT22;38507;53.132;6.394;2022-07-03T02:30:12;14.80;99.90
52209;DHT22;38507;53.132;6.394;2022-07-03T02:32:43;14.80;99.90
52209;DHT22;38507;53.132;6.394;2022-07-03T02:35:13;14.80;99.90
52209;DHT22;38507;53.132;6.394;2022-07-03T02:37:48;14.80;99.90
52209;DHT22;38507;53.132;6.394;2022-07-03T02:40:39;14.70;99.90
52209;DHT22;38507;53.132;6.394;2022-07-03T02:43:19;14.70;99.90
52209;DHT22;38507;53.132;6.394;2022-07-03T02:46:26;14.60;99.90
52209;DHT22;38507;53.132;6.394;2022-07-03T02:52:17;14.50;99.90
52209;DHT22;38507;53.132;6.394;2022-07-03T02:54:47;14.40;99.90
52209;DHT22;38507;53.132;6.394;2022-07-03T02:57:16;14.30;99.90
52209;DHT22;38507;53.132;6.394;2022-07-03T03:05:13;14.10;99.90
52209;DHT22;38507;53.132;6.394;2022-07-03T03:10:34;14.00;99.90
52209;DHT22;38507;53.132;6.394;2022-07-03T03:13:10;13.90;99.90
52209;DHT22;38507;53.132;6.394;2022-07-03T03:15:38;13.80;99.90
52209;DHT22;38507;53.132;6.394;2022-07-03T03:18:09;13.80;99.90
52209;DHT22;38507;53.132;6.394;2022-07-03T03:20:38;13.70;99.90
52209;DHT22;38507;53.132;6.394;2022-07-03T03:25:51;13.70;99.90
52209;DHT22;38507;53.132;6.394;2022-07-03T03:28:16;13.80;99.90
52209;DHT22;38507;53.132;6.394;2022-07-03T03:30:42;13.90;99.90
52209;DHT22;38507;53.132;6.394;2022-07-03T03:33:08;13.90;99.90
52209;DHT22;38507;53.132;6.394;2022-07-03T03:35:38;13.90;99.90
52209;DHT22;38507;53.132;6.394;2022-07-03T03:38:05;13.90;99.90
52209;DHT22;38507;53.132;6.394;2022-07-03T03:40:34;13.90;99.90
52209;DHT22;38507;53.132;6.394;2022-07-03T03:43:01;13.80;99.90
52209;DHT22;38507;53.132;6.394;2022-07-03T03:45:27;13.90;99.90
52209;DHT22;38507;53.132;6.394;2022-07-03T03:47:53;13.90;99.90
52209;DHT22;38507;53.132;6.394;2022-07-03T03:50:20;14.00;99.90
52209;DHT22;38507;53.132;6.394;2022-07-03T03:52:45;14.00;99.90
52209;DHT22;38507;53.132;6.394;2022-07-03T03:55:11;14.00;99.90
52209;DHT22;38507;53.132;6.394;2022-07-03T03:57:37;14.20;99.90
52209;DHT22;38507;53.132;6.394;2022-07-03T04:00:07;14.10;99.90
52209;DHT22;38507;53.132;6.394;2022-07-03T04:02:33;14.20;99.90
52209;DHT22;38507;53.132;6.394;2022-07-03T04:04:58;14.10;99.90
52209;DHT22;38507;53.132;6.394;2022-07-03T04:07:24;14.00;99.90
52209;DHT22;38507;53.132;6.394;2022-07-03T04:09:50;14.10;99.90
52209;DHT22;38507;53.132;6.394;2022-07-03T04:12:15;14.00;99.90
52209;DHT22;38507;53.132;6.394;2022-07-03T04:14:41;14.00;99.90
52209;DHT22;38507;53.132;6.394;2022-07-03T04:17:06;14.10;99.90
52209;DHT22;38507;53.132;6.394;2022-07-03T04:19:32;14.20;99.90
52209;DHT22;38507;53.132;6.394;2022-07-03T04:21:58;14.50;99.90
52209;DHT22;38507;53.132;6.394;2022-07-03T04:24:24;14.40;99.90
52209;DHT22;38507;53.132;6.394;2022-07-03T04:26:49;14.40;99.90
52209;DHT22;38507;53.132;6.394;2022-07-03T04:29:15;14.40;99.90
52209;DHT22;38507;53.132;6.394;2022-07-03T04:31:41;14.50;99.90
52209;DHT22;38507;53.132;6.394;2022-07-03T04:34:06;14.70;99.90
52209;DHT22;38507;53.132;6.394;2022-07-03T04:36:32;14.50;99.90
52209;DHT22;38507;53.132;6.394;2022-07-03T04:38:58;14.60;99.90
52209;DHT22;38507;53.132;6.394;2022-07-03T04:41:23;14.60;99.90
52209;DHT22;38507;53.132;6.394;2022-07-03T04:43:49;14.70;99.90
52209;DHT22;38507;53.132;6.394;2022-07-03T04:46:14;14.80;99.90
52209;DHT22;38507;53.132;6.394;2022-07-03T04:48:40;14.90;99.90
52209;DHT22;38507;53.132;6.394;2022-07-03T04:51:06;15.00;99.90
52209;DHT22;38507;53.132;6.394;2022-07-03T04:53:31;15.00;99.90
52209;DHT22;38507;53.132;6.394;2022-07-03T04:55:58;15.40;99.90
52209;DHT22;38507;53.132;6.394;2022-07-03T04:58:23;15.30;99.90
52209;DHT22;38507;53.132;6.394;2022-07-03T05:00:49;15.40;99.90
52209;DHT22;38507;53.132;6.394;2022-07-03T05:03:15;15.50;99.90
52209;DHT22;38507;53.132;6.394;2022-07-03T05:05:40;15.80;99.90
52209;DHT22;38507;53.132;6.394;2022-07-03T05:08:06;15.70;99.90
52209;DHT22;38507;53.132;6.394;2022-07-03T05:10:32;15.80;99.90
52209;DHT22;38507;53.132;6.394;2022-07-03T05:12:57;16.00;99.90
52209;DHT22;38507;53.132;6.394;2022-07-03T05:15:23;16.10;99.90
52209;DHT22;38507;53.132;6.394;2022-07-03T05:17:49;16.20;99.90
52209;DHT22;38507;53.132;6.394;2022-07-03T05:20:15;16.30;99.90
52209;DHT22;38507;53.132;6.394;2022-07-03T05:23:00;16.50;99.90
52209;DHT22;38507;53.132;6.394;2022-07-03T05:25:28;16.70;99.90
52209;DHT22;38507;53.132;6.394;2022-07-03T05:27:55;16.80;99.90
52209;DHT22;38507;53.132;6.394;2022-07-03T05:30:22;17.00;99.90
52209;DHT22;38507;53.132;6.394;2022-07-03T05:32:48;17.10;99.90
52209;DHT22;38507;53.132;6.394;2022-07-03T05:35:14;17.20;99.90
52209;DHT22;38507;53.132;6.394;2022-07-03T05:37:40;17.30;99.90
52209;DHT22;38507;53.132;6.394;2022-07-03T05:40:06;17.40;99.90
52209;DHT22;38507;53.132;6.394;2022-07-03T05:42:33;17.50;99.90
52209;DHT22;38507;53.132;6.394;2022-07-03T05:44:58;17.60;99.90
52209;DHT22;38507;53.132;6.394;2022-07-03T05:47:24;17.70;99.90
52209;DHT22;38507;53.132;6.394;2022-07-03T05:49:50;17.70;99.90
52209;DHT22;38507;53.132;6.394;2022-07-03T05:52:16;17.70;99.90
52209;DHT22;38507;53.132;6.394;2022-07-03T05:54:42;17.80;99.90
52209;DHT22;38507;53.132;6.394;2022-07-03T05:57:11;17.80;99.90
52209;DHT22;38507;53.132;6.394;2022-07-03T05:59:36;17.90;99.90
52209;DHT22;38507;53.132;6.394;2022-07-03T06:02:02;18.00;99.90
52209;DHT22;38507;53.132;6.394;2022-07-03T06:04:28;18.10;99.90
52209;DHT22;38507;53.132;6.394;2022-07-03T06:06:54;18.20;99.90
52209;DHT22;38507;53.132;6.394;2022-07-03T06:09:21;18.10;99.90
52209;DHT22;38507;53.132;6.394;2022-07-03T06:11:47;18.30;99.90
52209;DHT22;38507;53.132;6.394;2022-07-03T06:14:13;18.40;99.90
52209;DHT22;38507;53.132;6.394;2022-07-03T06:16:39;18.30;99.90
52209;DHT22;38507;53.132;6.394;2022-07-03T06:19:05;18.40;99.90
52209;DHT22;38507;53.132;6.394;2022-07-03T06:21:31;18.40;99.90
52209;DHT22;38507;53.132;6.394;2022-07-03T06:23:57;18.60;99.90
52209;DHT22;38507;53.132;6.394;2022-07-03T06:26:23;18.80;99.90
52209;DHT22;38507;53.132;6.394;2022-07-03T06:28:48;19.00;99.90
52209;DHT22;38507;53.132;6.394;2022-07-03T06:31:14;19.10;99.90
52209;DHT22;38507;53.132;6.394;2022-07-03T06:33:40;19.30;99.90
52209;DHT22;38507;53.132;6.394;2022-07-03T06:36:06;19.30;99.90
52209;DHT22;38507;53.132;6.394;2022-07-03T06:38:32;19.30;99.90
52209;DHT22;38507;53.132;6.394;2022-07-03T06:40:58;19.40;99.90
52209;DHT22;38507;53.132;6.394;2022-07-03T06:43:24;19.50;99.90
52209;DHT22;38507;53.132;6.394;2022-07-03T06:45:49;19.60;99.90
52209;DHT22;38507;53.132;6.394;2022-07-03T06:48:15;19.50;99.90
52209;DHT22;38507;53.132;6.394;2022-07-03T06:50:45;19.50;99.90
52209;DHT22;38507;53.132;6.394;2022-07-03T06:53:11;19.60;99.90
52209;DHT22;38507;53.132;6.394;2022-07-03T06:55:36;19.60;99.90
52209;DHT22;38507;53.132;6.394;2022-07-03T06:58:02;19.80;99.90
52209;DHT22;38507;53.132;6.394;2022-07-03T07:00:28;19.90;99.90
52209;DHT22;38507;53.132;6.394;2022-07-03T07:02:54;20.00;99.90
52209;DHT22;38507;53.132;6.394;2022-07-03T07:05:20;20.30;99.90
52209;DHT22;38507;53.132;6.394;2022-07-03T07:07:46;20.30;99.90
52209;DHT22;38507;53.132;6.394;2022-07-03T07:10:12;20.30;99.90
52209;DHT22;38507;53.132;6.394;2022-07-03T07:12:37;20.40;99.90
52209;DHT22;38507;53.132;6.394;2022-07-03T07:15:03;20.40;99.90
52209;DHT22;38507;53.132;6.394;2022-07-03T07:17:29;20.40;99.90
52209;DHT22;38507;53.132;6.394;2022-07-03T07:19:55;20.30;99.90
52209;DHT22;38507;53.132;6.394;2022-07-03T07:22:22;20.40;99.90
52209;DHT22;38507;53.132;6.394;2022-07-03T07:24:48;20.40;99.90
52209;DHT22;38507;53.132;6.394;2022-07-03T07:27:14;20.50;99.90
52209;DHT22;38507;53.132;6.394;2022-07-03T07:29:40;20.50;99.90
52209;DHT22;38507;53.132;6.394;2022-07-03T07:32:08;20.60;99.90
52209;DHT22;38507;53.132;6.394;2022-07-03T07:34:37;20.80;99.90
52209;DHT22;38507;53.132;6.394;2022-07-03T07:37:03;20.80;99.90
52209;DHT22;38507;53.132;6.394;2022-07-03T07:39:29;20.80;99.90
52209;DHT22;38507;53.132;6.394;2022-07-03T07:41:54;20.80;99.90
52209;DHT22;38507;53.132;6.394;2022-07-03T07:44:20;21.00;99.90
52209;DHT22;38507;53.132;6.394;2022-07-03T07:46:46;21.20;99.90
52209;DHT22;38507;53.132;6.394;2022-07-03T07:49:11;21.30;99.90
52209;DHT22;38507;53.132;6.394;2022-07-03T07:51:37;21.60;99.90
52209;DHT22;38507;53.132;6.394;2022-07-03T07:54:06;21.50;99.90
52209;DHT22;38507;53.132;6.394;2022-07-03T07:56:31;21.80;99.90
52209;DHT22;38507;53.132;6.394;2022-07-03T07:58:57;21.90;99.90
52209;DHT22;38507;53.132;6.394;2022-07-03T08:01:23;22.10;99.90
52209;DHT22;38507;53.132;6.394;2022-07-03T08:04:07;22.20;99.90
52209;DHT22;38507;53.132;6.394;2022-07-03T08:06:51;22.30;99.90
52209;DHT22;38507;53.132;6.394;2022-07-03T08:09:17;22.40;99.90
52209;DHT22;38507;53.132;6.394;2022-07-03T08:11:43;22.50;99.90
52209;DHT22;38507;53.132;6.394;2022-07-03T08:14:09;22.70;99.90
52209;DHT22;38507;53.132;6.394;2022-07-03T08:16:36;23.00;99.90
52209;DHT22;38507;53.132;6.394;2022-07-03T08:19:04;23.00;99.90
52209;DHT22;38507;53.132;6.394;2022-07-03T08:21:30;22.90;99.90
52209;DHT22;38507;53.132;6.394;2022-07-03T08:23:56;23.10;99.90
52209;DHT22;38507;53.132;6.394;2022-07-03T08:26:21;23.10;99.90
52209;DHT22;38507;53.132;6.394;2022-07-03T08:28:47;23.30;99.90
52209;DHT22;38507;53.132;6.394;2022-07-03T08:31:13;23.40;99.90
52209;DHT22;38507;53.132;6.394;2022-07-03T08:33:38;23.60;99.90
52209;DHT22;38507;53.132;6.394;2022-07-03T08:36:05;23.70;99.90
52209;DHT22;38507;53.132;6.394;2022-07-03T08:38:32;23.70;99.90
52209;DHT22;38507;53.132;6.394;2022-07-03T08:41:03;23.60;99.90
52209;DHT22;38507;53.132;6.394;2022-07-03T08:43:29;23.70;99.90
52209;DHT22;38507;53.132;6.394;2022-07-03T08:45:58;23.80;99.90
52209;DHT22;38507;53.132;6.394;2022-07-03T08:48:25;23.80;99.90
52209;DHT22;38507;53.132;6.394;2022-07-03T08:50:51;23.80;99.90
52209;DHT22;38507;53.132;6.394;2022-07-03T08:53:18;23.80;99.90
52209;DHT22;38507;53.132;6.394;2022-07-03T08:55:45;23.80;99.90
52209;DHT22;38507;53.132;6.394;2022-07-03T08:58:13;24.10;99.90
52209;DHT22;38507;53.132;6.394;2022-07-03T09:00:41;24.00;99.90
52209;DHT22;38507;53.132;6.394;2022-07-03T09:03:11;24.20;99.90
52209;DHT22;38507;53.132;6.394;2022-07-03T09:05:38;24.30;99.90
52209;DHT22;38507;53.132;6.394;2022-07-03T09:08:06;24.50;99.90
52209;DHT22;38507;53.132;6.394;2022-07-03T09:10:33;24.60;99.90
52209;DHT22;38507;53.132;6.394;2022-07-03T09:15:39;24.80;99.90
52209;DHT22;38507;53.132;6.394;2022-07-03T09:18:06;25.10;99.90
52209;DHT22;38507;53.132;6.394;2022-07-03T09:20:38;25.10;99.90
52209;DHT22;38507;53.132;6.394;2022-07-03T09:23:20;25.10;99.90
52209;DHT22;38507;53.132;6.394;2022-07-03T09:25:56;25.40;99.90
52209;DHT22;38507;53.132;6.394;2022-07-03T09:28:46;25.40;99.90
52209;DHT22;38507;53.132;6.394;2022-07-03T09:31:21;25.50;99.90
52209;DHT22;38507;53.132;6.394;2022-07-03T09:34:07;25.60;99.90
52209;DHT22;38507;53.132;6.394;2022-07-03T09:39:25;25.90;99.70
52209;DHT22;38507;53.132;6.394;2022-07-03T09:42:08;25.70;99.10
52209;DHT22;38507;53.132;6.394;2022-07-03T09:44:37;25.40;99.80
52209;DHT22;38507;53.132;6.394;2022-07-03T09:47:14;25.20;99.10
52209;DHT22;38507;53.132;6.394;2022-07-03T10:00:23;25.10;99.90
52209;DHT22;38507;53.132;6.394;2022-07-03T10:05:23;25.30;99.90
52209;DHT22;38507;53.132;6.394;2022-07-03T10:08:00;25.50;99.80
52209;DHT22;38507;53.132;6.394;2022-07-03T10:10:31;25.70;99.20
52209;DHT22;38507;53.132;6.394;2022-07-03T10:12:58;25.70;98.50
52209;DHT22;38507;53.132;6.394;2022-07-03T10:15:26;25.60;98.30
52209;DHT22;38507;53.132;6.394;2022-07-03T10:17:54;25.70;99.10
52209;DHT22;38507;53.132;6.394;2022-07-03T10:20:24;25.60;99.30
52209;DHT22;38507;53.132;6.394;2022-07-03T10:22:51;25.60;98.90
52209;DHT22;38507;53.132;6.394;2022-07-03T10:25:17;25.40;99.30
52209;DHT22;38507;53.132;6.394;2022-07-03T10:27:44;24.80;99.30
52209;DHT22;38507;53.132;6.394;2022-07-03T10:30:15;24.70;97.70
52209;DHT22;38507;53.132;6.394;2022-07-03T10:32:44;24.30;99.10
52209;DHT22;38507;53.132;6.394;2022-07-03T10:35:11;24.30;99.60
52209;DHT22;38507;53.132;6.394;2022-07-03T10:43:44;24.20;99.90
52209;DHT22;38507;53.132;6.394;2022-07-03T10:46:29;24.40;99.80
52209;DHT22;38507;53.132;6.394;2022-07-03T10:51:28;24.90;99.90
52209;DHT22;38507;53.132;6.394;2022-07-03T10:54:16;24.70;99.90
52209;DHT22;38507;53.132;6.394;2022-07-03T11:15:28;25.00;99.90
52209;DHT22;38507;53.132;6.394;2022-07-03T11:18:11;25.20;99.90
52209;DHT22;38507;53.132;6.394;2022-07-03T11:26:00;24.90;99.90
52209;DHT22;38507;53.132;6.394;2022-07-03T11:28:52;24.80;99.90
52209;DHT22;38507;53.132;6.394;2022-07-03T11:31:19;24.90;99.90
52209;DHT22;38507;53.132;6.394;2022-07-03T11:36:32;24.60;99.90
52209;DHT22;38507;53.132;6.394;2022-07-03T11:41:27;24.70;99.90
52209;DHT22;38507;53.132;6.394;2022-07-03T11:43:54;24.50;99.90
52209;DHT22;38507;53.132;6.394;2022-07-03T11:46:25;24.10;99.90
52209;DHT22;38507;53.132;6.394;2022-07-03T11:49:11;23.70;99.90
52209;DHT22;38507;53.132;6.394;2022-07-03T11:51:39;23.90;99.90
52209;DHT22;38507;53.132;6.394;2022-07-03T11:54:05;24.10;99.90
52209;DHT22;38507;53.132;6.394;2022-07-03T11:56:32;24.10;99.90
52209;DHT22;38507;53.132;6.394;2022-07-03T11:58:59;24.30;99.90
52209;DHT22;38507;53.132;6.394;2022-07-03T12:04:08;24.20;99.90
52209;DHT22;38507;53.132;6.394;2022-07-03T12:06:40;24.50;99.90
52209;DHT22;38507;53.132;6.394;2022-07-03T12:14:49;24.70;99.90
52209;DHT22;38507;53.132;6.394;2022-07-03T12:17:23;24.50;99.90
52209;DHT22;38507;53.132;6.394;2022-07-03T12:19:51;24.40;99.90
52209;DHT22;38507;53.132;6.394;2022-07-03T12:27:27;23.50;99.90
52209;DHT22;38507;53.132;6.394;2022-07-03T12:29:53;23.30;99.90
52209;DHT22;38507;53.132;6.394;2022-07-03T12:32:26;23.00;99.90
52209;DHT22;38507;53.132;6.394;2022-07-03T12:34:55;23.10;99.90
52209;DHT22;38507;53.132;6.394;2022-07-03T12:37:34;23.40;99.90
52209;DHT22;38507;53.132;6.394;2022-07-03T12:40:05;23.70;99.90
52209;DHT22;38507;53.132;6.394;2022-07-03T12:42:31;24.00;99.90
52209;DHT22;38507;53.132;6.394;2022-07-03T12:45:12;24.00;99.90
52209;DHT22;38507;53.132;6.394;2022-07-03T12:47:38;24.30;99.90
52209;DHT22;38507;53.132;6.394;2022-07-03T12:50:06;24.60;99.90
52209;DHT22;38507;53.132;6.394;2022-07-03T12:52:33;24.60;99.90
52209;DHT22;38507;53.132;6.394;2022-07-03T12:55:01;24.70;99.90
52209;DHT22;38507;53.132;6.394;2022-07-03T12:57:27;24.50;99.90
52209;DHT22;38507;53.132;6.394;2022-07-03T13:00:16;24.60;99.90
52209;DHT22;38507;53.132;6.394;2022-07-03T13:02:44;24.20;99.90
52209;DHT22;38507;53.132;6.394;2022-07-03T13:05:23;24.00;99.90
52209;DHT22;38507;53.132;6.394;2022-07-03T13:07:51;23.90;99.90
52209;DHT22;38507;53.132;6.394;2022-07-03T13:10:21;23.90;99.90
52209;DHT22;38507;53.132;6.394;2022-07-03T13:15:17;23.70;99.90
52209;DHT22;38507;53.132;6.394;2022-07-03T13:20:25;23.70;99.90
52209;DHT22;38507;53.132;6.394;2022-07-03T13:22:52;23.50;99.90
52209;DHT22;38507;53.132;6.394;2022-07-03T13:25:18;23.60;99.90
52209;DHT22;38507;53.132;6.394;2022-07-03T13:27:44;23.30;99.90
52209;DHT22;38507;53.132;6.394;2022-07-03T13:30:15;23.20;99.90
52209;DHT22;38507;53.132;6.394;2022-07-03T13:32:41;23.10;99.90
52209;DHT22;38507;53.132;6.394;2022-07-03T13:35:07;22.90;99.90
52209;DHT22;38507;53.132;6.394;2022-07-03T13:37:33;22.80;99.90
52209;DHT22;38507;53.132;6.394;2022-07-03T13:40:00;22.80;99.90
52209;DHT22;38507;53.132;6.394;2022-07-03T13:42:26;22.50;99.90
52209;DHT22;38507;53.132;6.394;2022-07-03T13:44:52;22.30;99.90
52209;DHT22;38507;53.132;6.394;2022-07-03T13:47:18;22.20;99.90
52209;DHT22;38507;53.132;6.394;2022-07-03T13:49:43;22.00;99.90
52209;DHT22;38507;53.132;6.394;2022-07-03T13:52:14;21.60;99.90
52209;DHT22;38507;53.132;6.394;2022-07-03T13:54:39;21.10;99.90
52209;DHT22;38507;53.132;6.394;2022-07-03T13:57:05;20.60;99.90
52209;DHT22;38507;53.132;6.394;2022-07-03T13:59:31;20.30;99.90
52209;DHT22;38507;53.132;6.394;2022-07-03T14:02:00;20.00;99.90
52209;DHT22;38507;53.132;6.394;2022-07-03T14:04:26;19.90;99.90
52209;DHT22;38507;53.132;6.394;2022-07-03T14:06:53;19.60;99.90
52209;DHT22;38507;53.132;6.394;2022-07-03T14:09:18;19.60;99.90
52209;DHT22;38507;53.132;6.394;2022-07-03T14:11:44;19.50;99.90
52209;DHT22;38507;53.132;6.394;2022-07-03T14:14:10;19.40;99.90
52209;DHT22;38507;53.132;6.394;2022-07-03T14:16:36;19.40;99.90
52209;DHT22;38507;53.132;6.394;2022-07-03T14:19:03;19.40;99.90
52209;DHT22;38507;53.132;6.394;2022-07-03T14:21:31;19.40;99.90
52209;DHT22;38507;53.132;6.394;2022-07-03T14:23:58;19.40;99.90
52209;DHT22;38507;53.132;6.394;2022-07-03T14:26:23;19.40;99.90
52209;DHT22;38507;53.132;6.394;2022-07-03T14:29:07;19.60;99.90
52209;DHT22;38507;53.132;6.394;2022-07-03T14:31:53;19.40;99.90
52209;DHT22;38507;53.132;6.394;2022-07-03T14:34:38;19.30;99.90
52209;DHT22;38507;53.132;6.394;2022-07-03T14:37:04;19.30;99.90
52209;DHT22;38507;53.132;6.394;2022-07-03T14:39:30;19.40;99.90
52209;DHT22;38507;53.132;6.394;2022-07-03T14:41:59;19.30;99.90
52209;DHT22;38507;53.132;6.394;2022-07-03T14:44:24;19.30;99.90
52209;DHT22;38507;53.132;6.394;2022-07-03T14:46:52;19.20;99.90
52209;DHT22;38507;53.132;6.394;2022-07-03T14:49:18;19.10;99.90
52209;DHT22;38507;53.132;6.394;2022-07-03T14:51:44;19.20;99.90
52209;DHT22;38507;53.132;6.394;2022-07-03T14:54:11;19.20;99.90
52209;DHT22;38507;53.132;6.394;2022-07-03T14:56:40;19.20;99.90
52209;DHT22;38507;53.132;6.394;2022-07-03T14:59:08;19.10;99.90
52209;DHT22;38507;53.132;6.394;2022-07-03T15:01:36;19.10;99.90
52209;DHT22;38507;53.132;6.394;2022-07-03T15:04:09;19.20;99.90
52209;DHT22;38507;53.132;6.394;2022-07-03T15:06:39;19.30;99.90
52209;DHT22;38507;53.132;6.394;2022-07-03T15:09:04;19.20;99.90
52209;DHT22;38507;53.132;6.394;2022-07-03T15:14:23;19.40;99.90
52209;DHT22;38507;53.132;6.394;2022-07-03T15:16:51;19.40;99.90
52209;DHT22;38507;53.132;6.394;2022-07-03T15:19:19;19.60;99.90
52209;DHT22;38507;53.132;6.394;2022-07-03T15:21:47;19.50;99.90
52209;DHT22;38507;53.132;6.394;2022-07-03T15:24:14;19.40;99.90
52209;DHT22;38507;53.132;6.394;2022-07-03T15:26:40;19.30;99.90
52209;DHT22;38507;53.132;6.394;2022-07-03T15:29:07;19.30;99.90
52209;DHT22;38507;53.132;6.394;2022-07-03T15:31:36;19.30;99.90
52209;DHT22;38507;53.132;6.394;2022-07-03T15:34:04;19.30;99.90
52209;DHT22;38507;53.132;6.394;2022-07-03T15:36:44;19.40;99.90
52209;DHT22;38507;53.132;6.394;2022-07-03T15:39:17;19.40;99.90
52209;DHT22;38507;53.132;6.394;2022-07-03T15:42:04;19.40;99.90
52209;DHT22;38507;53.132;6.394;2022-07-03T15:44:42;19.30;99.90
52209;DHT22;38507;53.132;6.394;2022-07-03T15:47:40;19.20;99.90
52209;DHT22;38507;53.132;6.394;2022-07-03T15:50:08;19.10;99.90
52209;DHT22;38507;53.132;6.394;2022-07-03T15:52:43;19.00;99.90
52209;DHT22;38507;53.132;6.394;2022-07-03T15:55:10;18.90;99.90
52209;DHT22;38507;53.132;6.394;2022-07-03T15:57:53;18.80;99.90
52209;DHT22;38507;53.132;6.394;2022-07-03T16:00:21;18.70;99.90
52209;DHT22;38507;53.132;6.394;2022-07-03T16:05:47;18.50;99.90
52209;DHT22;38507;53.132;6.394;2022-07-03T16:08:13;18.60;99.90
52209;DHT22;38507;53.132;6.394;2022-07-03T16:10:40;18.50;99.90
52209;DHT22;38507;53.132;6.394;2022-07-03T16:13:06;18.50;99.90
52209;DHT22;38507;53.132;6.394;2022-07-03T16:15:40;18.60;99.90
52209;DHT22;38507;53.132;6.394;2022-07-03T16:18:07;18.50;99.90
52209;DHT22;38507;53.132;6.394;2022-07-03T16:20:34;18.40;99.90
52209;DHT22;38507;53.132;6.394;2022-07-03T16:23:06;18.40;99.90
52209;DHT22;38507;53.132;6.394;2022-07-03T16:25:33;18.40;99.90
52209;DHT22;38507;53.132;6.394;2022-07-03T16:28:02;18.50;99.90
52209;DHT22;38507;53.132;6.394;2022-07-03T16:30:30;18.60;99.90
52209;DHT22;38507;53.132;6.394;2022-07-03T16:32:56;18.60;99.90
52209;DHT22;38507;53.132;6.394;2022-07-03T16:35:36;18.60;99.90
52209;DHT22;38507;53.132;6.394;2022-07-03T16:38:05;18.60;99.90
52209;DHT22;38507;53.132;6.394;2022-07-03T16:40:33;18.60;99.90
52209;DHT22;38507;53.132;6.394;2022-07-03T16:43:04;18.60;99.90
52209;DHT22;38507;53.132;6.394;2022-07-03T16:45:31;18.40;99.90
52209;DHT22;38507;53.132;6.394;2022-07-03T16:48:24;18.50;99.90
52209;DHT22;38507;53.132;6.394;2022-07-03T16:50:56;18.40;99.90
52209;DHT22;38507;53.132;6.394;2022-07-03T16:53:23;18.40;99.90
52209;DHT22;38507;53.132;6.394;2022-07-03T16:55:50;18.40;99.90
52209;DHT22;38507;53.132;6.394;2022-07-03T16:58:16;18.40;99.90
52209;DHT22;38507;53.132;6.394;2022-07-03T17:00:43;18.30;99.90
52209;DHT22;38507;53.132;6.394;2022-07-03T17:03:10;18.40;99.90
52209;DHT22;38507;53.132;6.394;2022-07-03T17:05:36;18.40;99.90
52209;DHT22;38507;53.132;6.394;2022-07-03T17:08:03;18.50;99.90
52209;DHT22;38507;53.132;6.394;2022-07-03T17:10:29;18.40;99.90
52209;DHT22;38507;53.132;6.394;2022-07-03T17:12:57;18.70;99.90
52209;DHT22;38507;53.132;6.394;2022-07-03T17:15:24;18.70;99.90
52209;DHT22;38507;53.132;6.394;2022-07-03T17:18:04;18.70;99.90
52209;DHT22;38507;53.132;6.394;2022-07-03T17:20:42;18.80;99.90
52209;DHT22;38507;53.132;6.394;2022-07-03T17:25:40;18.90;99.90
52209;DHT22;38507;53.132;6.394;2022-07-03T17:28:06;18.80;99.90
52209;DHT22;38507;53.132;6.394;2022-07-03T17:30:42;18.80;99.90
52209;DHT22;38507;53.132;6.394;2022-07-03T17:33:10;18.80;99.90
52209;DHT22;38507;53.132;6.394;2022-07-03T17:35:39;18.80;99.90
52209;DHT22;38507;53.132;6.394;2022-07-03T17:38:11;18.80;99.90